createdAt,value
2023-05-02T00:02:02.812Z,10.70
2023-05-02T00:07:12.621Z,10.62
2023-05-02T00:12:23.522Z,10.54
2023-05-02T00:17:33.609Z,10.49
2023-05-02T00:22:43.989Z,10.44
2023-05-02T00:27:53.760Z,10.36
2023-05-02T00:33:03.529Z,10.24
2023-05-02T00:38:13.349Z,10.15
2023-05-02T00:43:23.209Z,10.06
2023-05-02T00:48:33.069Z,9.97
2023-05-02T00:53:43.400Z,9.85
2023-05-02T00:58:53.979Z,9.80
2023-05-02T01:04:21.910Z,9.75
2023-05-02T01:09:45.234Z,9.75
2023-05-02T01:15:00.310Z,9.72
2023-05-02T01:20:16.109Z,9.73
2023-05-02T01:25:38.562Z,9.85
2023-05-02T01:30:51.977Z,9.91
2023-05-02T01:36:05.089Z,9.95
2023-05-02T01:41:16.612Z,10.01
2023-05-02T01:46:29.400Z,10.07
2023-05-02T01:51:46.362Z,10.12
2023-05-02T01:56:58.180Z,10.15
2023-05-02T02:02:10.517Z,10.18
2023-05-02T02:07:20.452Z,10.18
2023-05-02T02:12:38.550Z,10.16
2023-05-02T02:17:56.878Z,10.15
2023-05-02T02:23:10.217Z,10.13
2023-05-02T02:28:20.217Z,10.10
2023-05-02T02:33:33.942Z,10.07
2023-05-02T02:38:51.252Z,10.02
2023-05-02T02:44:19.672Z,9.98
2023-05-02T02:49:41.214Z,9.96
2023-05-02T02:54:59.679Z,9.94
2023-05-02T03:00:18.119Z,9.94
2023-05-02T03:05:29.126Z,9.95
2023-05-02T03:10:39.128Z,9.95
2023-05-02T03:16:31.457Z,9.96
2023-05-02T03:21:42.180Z,9.95
2023-05-02T03:26:52.119Z,9.95
2023-05-02T03:32:02.047Z,9.94
2023-05-02T03:37:12.164Z,9.97
2023-05-02T03:42:22.920Z,9.98
2023-05-02T03:47:32.698Z,9.95
2023-05-02T03:52:42.392Z,9.98
2023-05-02T03:57:52.342Z,9.98
2023-05-02T04:03:03.953Z,9.97
2023-05-02T04:08:13.885Z,9.91
2023-05-02T04:13:23.595Z,9.98
2023-05-02T04:18:33.523Z,10.08
2023-05-02T04:23:43.294Z,10.10
2023-05-02T04:28:52.928Z,10.15
2023-05-02T04:34:04.593Z,10.20
2023-05-02T04:39:14.331Z,10.36
2023-05-02T04:44:24.157Z,10.53
2023-05-02T04:49:33.920Z,10.73
2023-05-02T04:54:43.521Z,10.86
2023-05-02T04:59:53.226Z,10.98
2023-05-02T05:05:04.773Z,11.19
2023-05-02T05:10:15.531Z,11.52
2023-05-02T05:15:26.334Z,11.87
2023-05-02T05:20:36.207Z,12.13
2023-05-02T05:25:46.506Z,12.41
2023-05-02T05:30:56.389Z,12.60
2023-05-02T05:36:12.338Z,12.75
2023-05-02T05:41:22.338Z,12.87
2023-05-02T05:46:32.135Z,12.97
2023-05-02T05:51:42.583Z,12.99
2023-05-02T05:56:53.021Z,12.88
2023-05-02T06:02:02.786Z,12.90
2023-05-02T06:07:12.789Z,13.08
2023-05-02T06:12:23.090Z,13.37
2023-05-02T06:17:32.922Z,13.69
2023-05-02T06:22:42.904Z,13.92
2023-05-02T06:27:59.113Z,14.15
2023-05-02T06:33:12.706Z,14.24
2023-05-02T06:38:22.638Z,14.23
2023-05-02T06:43:33.253Z,14.33
2023-05-02T06:48:43.080Z,14.38
2023-05-02T06:53:53.056Z,14.31
2023-05-02T06:59:03.280Z,14.20
2023-05-02T07:04:13.176Z,14.13
2023-05-02T07:09:22.933Z,14.03
2023-05-02T07:14:32.711Z,14.00
2023-05-02T07:19:58.757Z,14.06
2023-05-02T07:25:10.354Z,14.15
2023-05-02T07:30:20.061Z,14.20
2023-05-02T07:35:29.772Z,14.14
2023-05-02T07:40:39.508Z,14.08
2023-05-02T07:45:49.585Z,14.00
2023-05-02T07:51:07.276Z,13.89
2023-05-02T07:56:17.066Z,13.86
2023-05-02T08:01:26.947Z,13.87
2023-05-02T08:06:37.152Z,13.92
2023-05-02T08:11:46.892Z,14.00
2023-05-02T08:16:56.578Z,14.13
2023-05-02T08:22:06.480Z,14.31
2023-05-02T08:27:16.103Z,14.54
2023-05-02T08:32:25.881Z,14.79
2023-05-02T08:37:36.702Z,14.90
2023-05-02T08:42:48.839Z,14.93
2023-05-02T08:48:00.383Z,14.97
2023-05-02T08:53:12.415Z,14.90
2023-05-02T08:58:22.126Z,14.82
2023-05-02T09:03:36.384Z,14.86
2023-05-02T09:08:49.108Z,14.97
2023-05-02T09:14:04.250Z,14.98
2023-05-02T09:19:25.418Z,14.85
2023-05-02T09:24:35.152Z,14.58
2023-05-02T09:29:46.314Z,14.32
2023-05-02T09:40:30.430Z,14.06
2023-05-02T09:45:40.516Z,14.18
2023-05-02T09:50:50.174Z,14.43
2023-05-02T09:56:11.312Z,14.68
2023-05-02T10:01:22.794Z,14.84
2023-05-02T10:06:34.291Z,15.04
2023-05-02T10:11:46.398Z,15.20
2023-05-02T10:17:06.711Z,15.36
2023-05-02T10:22:20.266Z,15.62
2023-05-02T10:27:30.905Z,16.01
2023-05-02T10:32:42.201Z,16.29
2023-05-02T10:37:53.934Z,16.34
2023-05-02T10:43:03.851Z,16.37
2023-05-02T10:48:22.571Z,16.68
2023-05-02T10:53:36.946Z,16.87
2023-05-02T10:58:49.571Z,17.07
2023-05-02T11:04:03.815Z,17.52
2023-05-02T11:09:40.138Z,17.96
2023-05-02T11:14:54.396Z,18.12
2023-05-02T11:20:29.801Z,18.15
2023-05-02T11:25:45.661Z,18.27
2023-05-02T11:30:56.127Z,18.49
2023-05-02T11:36:07.250Z,18.59
2023-05-02T11:41:17.951Z,18.76
2023-05-02T11:46:27.791Z,18.90
2023-05-02T11:51:38.110Z,18.87
2023-05-02T11:56:48.731Z,18.95
2023-05-02T12:01:58.624Z,18.82
2023-05-02T12:07:10.153Z,18.55
2023-05-02T12:12:25.410Z,18.32
2023-05-02T12:17:36.559Z,18.38
2023-05-02T12:22:47.909Z,18.41
2023-05-02T12:28:08.297Z,18.44
2023-05-02T12:33:18.649Z,18.35
2023-05-02T12:38:28.694Z,18.35
2023-05-02T12:43:55.071Z,18.31
2023-05-02T12:49:12.927Z,18.24
2023-05-02T12:54:27.126Z,18.10
2023-05-02T12:59:37.680Z,18.08
2023-05-02T13:04:47.616Z,18.29
2023-05-02T13:09:57.416Z,18.41
2023-05-02T13:15:09.032Z,18.35
2023-05-02T13:20:19.215Z,18.03
2023-05-02T13:25:29.038Z,17.71
2023-05-02T13:30:38.745Z,17.46
2023-05-02T13:35:48.640Z,17.21
2023-05-02T13:40:58.379Z,16.76
2023-05-02T13:46:08.355Z,16.63
2023-05-02T13:51:18.151Z,16.83
2023-05-02T13:56:28.122Z,17.16
2023-05-02T14:01:40.795Z,17.30
2023-05-02T14:06:50.930Z,17.15
2023-05-02T14:12:00.755Z,17.03
2023-05-02T14:17:10.477Z,17.19
2023-05-02T14:22:20.229Z,17.18
2023-05-02T14:27:29.996Z,16.95
2023-05-02T14:32:39.841Z,16.82
2023-05-02T14:37:49.727Z,16.64
2023-05-02T14:42:59.533Z,16.15
2023-05-02T14:48:11.156Z,15.67
2023-05-02T14:53:22.134Z,15.22
2023-05-02T14:58:31.921Z,14.86
2023-05-02T15:03:56.998Z,14.55
2023-05-02T15:09:12.361Z,14.20
2023-05-02T15:14:21.994Z,13.92
2023-05-02T15:19:31.702Z,13.62
2023-05-02T15:24:41.292Z,13.34
2023-05-02T15:29:50.971Z,13.05
2023-05-02T15:35:00.895Z,12.89
2023-05-02T15:40:14.667Z,12.58
2023-05-02T15:45:24.629Z,12.45
2023-05-02T15:50:34.585Z,12.45
2023-05-02T15:55:46.111Z,12.46
2023-05-02T16:00:56.303Z,12.45
2023-05-02T16:06:07.973Z,12.37
2023-05-02T16:11:17.784Z,12.26
2023-05-02T16:16:27.706Z,12.14
2023-05-02T16:21:37.766Z,12.10
2023-05-02T16:26:47.727Z,12.03
2023-05-02T16:31:57.572Z,11.98
2023-05-02T16:37:07.758Z,12.00
2023-05-02T16:42:17.597Z,11.95
2023-05-02T16:47:27.371Z,11.84
2023-05-02T16:52:38.274Z,11.83
2023-05-02T16:57:48.147Z,11.81
2023-05-02T17:02:58.578Z,11.86
2023-05-02T17:08:09.844Z,11.92
2023-05-02T17:13:22.032Z,12.07
2023-05-02T17:18:32.021Z,12.54
2023-05-02T17:23:42.408Z,12.55
2023-05-02T17:28:54.022Z,12.64
2023-05-02T17:34:04.012Z,13.09
2023-05-02T17:39:16.094Z,12.96
2023-05-02T17:44:25.984Z,12.44
2023-05-02T17:49:36.713Z,11.99
2023-05-02T17:54:46.780Z,11.68
2023-05-02T17:59:59.817Z,11.48
2023-05-02T18:05:11.059Z,11.23
2023-05-02T18:10:21.629Z,11.03
2023-05-02T18:15:31.532Z,10.93
2023-05-02T18:20:44.846Z,10.84
2023-05-02T18:25:54.719Z,10.70
2023-05-02T18:31:05.090Z,10.68
2023-05-02T18:36:15.139Z,10.65
2023-05-02T18:41:25.077Z,10.61
2023-05-02T18:46:34.771Z,10.51
2023-05-02T18:51:44.621Z,10.50
2023-05-02T18:56:54.270Z,10.43
2023-05-02T19:02:04.446Z,10.29
2023-05-02T19:07:14.780Z,10.17
2023-05-02T19:12:24.855Z,10.13
2023-05-02T19:17:35.441Z,10.10
2023-05-02T19:22:46.372Z,10.07
2023-05-02T19:27:56.228Z,9.97
2023-05-02T19:33:06.138Z,9.92
2023-05-02T19:38:16.010Z,9.91
2023-05-02T19:43:25.849Z,9.90
2023-05-02T19:48:35.865Z,9.95
2023-05-02T19:53:45.845Z,9.97
2023-05-02T19:58:56.999Z,9.88
2023-05-02T20:04:07.166Z,9.80
2023-05-02T20:09:17.399Z,9.76
2023-05-02T20:14:27.263Z,9.71
2023-05-02T20:19:37.069Z,9.60
2023-05-02T20:24:46.893Z,9.52
2023-05-02T20:29:57.130Z,9.42
2023-05-02T20:35:07.479Z,9.32
2023-05-02T20:40:19.886Z,9.17
2023-05-02T20:45:29.990Z,9.17
2023-05-02T20:50:40.065Z,9.12
2023-05-02T20:55:50.031Z,9.01
2023-05-02T21:00:59.845Z,8.83
2023-05-02T21:06:09.873Z,8.70
2023-05-02T21:11:20.669Z,8.58
2023-05-02T21:16:30.559Z,8.46
2023-05-02T21:21:40.576Z,8.32
2023-05-02T21:26:50.436Z,8.20
2023-05-02T21:32:00.190Z,8.04
2023-05-02T21:37:09.923Z,7.97
2023-05-02T21:42:19.839Z,7.92
2023-05-02T21:47:29.851Z,7.84
2023-05-02T21:52:39.752Z,7.83
2023-05-02T21:57:49.528Z,7.83
2023-05-02T22:03:49.159Z,7.83
2023-05-02T22:08:59.010Z,7.83
2023-05-02T22:14:08.795Z,7.78
2023-05-02T22:19:18.475Z,7.69
2023-05-02T22:24:28.410Z,7.55
2023-05-02T22:29:38.357Z,7.43
2023-05-02T22:34:48.147Z,7.33
2023-05-02T22:39:58.020Z,7.24
2023-05-02T22:45:09.611Z,7.10
2023-05-02T22:50:20.136Z,6.98
2023-05-02T22:55:30.160Z,6.88
2023-05-02T23:00:40.020Z,6.82
2023-05-02T23:05:50.285Z,6.78
2023-05-02T23:11:00.285Z,6.72
2023-05-02T23:16:10.992Z,6.62
2023-05-02T23:21:21.194Z,6.51
2023-05-02T23:26:31.141Z,6.39
2023-05-02T23:31:41.176Z,6.32
2023-05-02T23:36:52.983Z,6.29
2023-05-02T23:42:03.974Z,6.30
2023-05-02T23:47:13.824Z,6.22
2023-05-02T23:52:23.737Z,6.12
2023-05-02T23:57:34.252Z,5.95
